METAR EDWI 271820Z AUTO VRB03KT CAVOK 18/10 Q1005=

Die Wetterinformationen haben nur informativen Charakter
und dürfen nicht zum Zwecke der Flugplanung benutzt werden.

Heute ist
Donnerstag, 27.07.2017
Sonnenaufgang
05:34 MESZ
Sonnenuntergang
21:33 MESZ

Platzöffnung
09:00 - 19:30 MESZ

StartseiteFlugplatzinfoFirmen & VereineSportfluggruppe Oldenburg

Sportfluggruppe Oldenburg e.V.

Die Sportfluggruppe Oldenburg e.V. hat ihren Ursprung als Bundeswehrsportfluggruppe beim Jagdbombergeschwader 43 in Oldenburg. 1979 wurden die Sportfluggruppen als eingetragene Vereine umorganisiert und als Mitglied in den Deutschen Aeroclub aufgenommen.

Mit Auflösung des Oldenburger Verbandes musste sich die Sportfluggruppe Oldenburg e.V. eine neue Bleibe suchen, da der Flugbetrieb auf dem Fliegerhorst Oldenburg nicht zuletzt aus kommunalpolitischen Erwägungen heraus eingestellt wurde.

Über eine Zwischenstation auf dem ehemaligen Bundeswehrflugplatz Ahlhorn fand man schließlich ein neues Zuhause am JadeWeserAirport. In einer eigenen Halle widmen sich die Mitglieder insbesondere der Tradition und Pflege der Piaggio-149D (Piggi) Fliegerei.

 

 

 

 

Auf unserer  Homepage können sie sich über alle Aktivitäten der Sportfluggruppe Oldenburg e.V. informieren.

Go to top